Time;durP1;ratioP1;P1;durP2;ratioP2;P2;SDS_P1;SDS_P2;PMS_P1;PMS_P2;Temp;Humidity;BMP_temperature;BMP_pressure;BME280_temperature;BME280_humidity;BME280_pressure;Samples;Min_cycle;Max_cycle;Signal;HPM_P1;HPM_P2
2022/06/14 00:02:34;;;;;;;0.00;0.00;;;21.50;59.70;;;;;;4214302;27;20047;-64
2022/06/14 00:04:55;;;;;;;0.10;0.10;;;21.50;59.70;;;;;;4241586;27;20109;-66
2022/06/14 00:07:18;;;;;;;0.17;0.17;;;21.50;59.70;;;;;;4242426;27;20043;-66
2022/06/14 00:09:40;;;;;;;0.10;0.10;;;21.40;59.80;;;;;;4242859;27;20135;-64
2022/06/14 00:12:02;;;;;;;0.00;0.00;;;21.40;59.80;;;;;;4209433;28;20073;-63
2022/06/14 00:14:24;;;;;;;0.00;0.00;;;21.50;59.90;;;;;;4192437;28;20151;-64
2022/06/14 00:16:46;;;;;;;0.00;0.00;;;21.40;59.90;;;;;;4192222;28;20165;-64
2022/06/14 00:19:10;;;;;;;0.00;0.00;;;21.40;59.90;;;;;;4191394;28;20110;-64
2022/06/14 00:21:33;;;;;;;0.25;0.25;;;21.40;59.90;;;;;;4219072;27;20123;-64
2022/06/14 00:23:55;;;;;;;0.00;0.00;;;21.40;59.90;;;;;;4225850;28;20054;-63
2022/06/14 00:26:17;;;;;;;0.00;0.00;;;21.40;59.90;;;;;;4225639;28;20491;-64
2022/06/14 00:28:40;;;;;;;0.00;0.00;;;21.40;59.90;;;;;;4224569;28;20399;-64
2022/06/14 00:31:05;;;;;;;0.00;0.00;;;21.40;60.00;;;;;;4225739;28;20059;-64
2022/06/14 00:33:27;;;;;;;0.00;0.00;;;21.40;60.10;;;;;;4214730;28;20652;-64
2022/06/14 00:35:58;;;;;;;0.32;0.32;;;21.40;61.10;;;;;;4208942;28;20040;-63
2022/06/14 00:38:20;;;;;;;3.38;0.20;;;21.30;60.10;;;;;;4208904;28;20113;-64
2022/06/14 00:40:49;;;;;;;0.77;0.77;;;21.30;60.20;;;;;;4209131;28;20780;-64
2022/06/14 00:43:15;;;;;;;0.00;0.00;;;21.30;60.30;;;;;;4208622;28;20048;-64
2022/06/14 00:46:12;;;;;;;0.00;0.00;;;21.30;60.40;;;;;;4222531;28;20048;-64
2022/06/14 00:48:35;;;;;;;0.22;0.22;;;21.30;60.30;;;;;;4225903;28;20049;-63
2022/06/14 00:51:02;;;;;;;0.00;0.00;;;21.30;60.40;;;;;;4225786;28;20059;-63
2022/06/14 00:53:28;;;;;;;0.00;0.00;;;21.30;60.40;;;;;;4212872;28;20511;-63
2022/06/14 00:55:53;;;;;;;0.13;0.13;;;21.30;60.40;;;;;;4208554;28;20131;-64
2022/06/14 00:58:19;;;;;;;0.00;0.00;;;21.30;60.50;;;;;;4208591;28;20546;-67
2022/06/14 01:00:48;;;;;;;0.00;0.00;;;21.20;60.50;;;;;;4207366;28;20052;-64
2022/06/14 01:03:15;;;;;;;0.93;0.85;;;21.30;60.60;;;;;;4209579;28;20067;-64
2022/06/14 01:08:20;;;;;;;0.60;0.60;;;21.20;60.60;;;;;;4208594;28;20093;-64
2022/06/14 01:10:47;;;;;;;0.00;0.00;;;21.20;60.70;;;;;;4209404;28;20052;-64
2022/06/14 01:13:09;;;;;;;4.20;2.33;;;21.20;60.70;;;;;;4225218;28;20407;-64
2022/06/14 01:15:33;;;;;;;0.00;0.00;;;21.20;60.70;;;;;;4225441;28;20484;-64
2022/06/14 01:17:59;;;;;;;1.55;0.43;;;21.20;60.70;;;;;;4242522;27;20043;-64
2022/06/14 01:20:23;;;;;;;0.00;0.00;;;21.20;60.80;;;;;;4242116;27;20120;-65
2022/06/14 01:22:48;;;;;;;0.00;0.00;;;21.20;60.80;;;;;;4208669;28;20431;-64
2022/06/14 01:25:11;;;;;;;0.00;0.00;;;21.20;60.80;;;;;;4206909;28;20052;-64
2022/06/14 01:27:37;;;;;;;0.00;0.00;;;21.20;60.80;;;;;;4221619;28;20124;-64
2022/06/14 01:30:06;;;;;;;0.00;0.00;;;21.10;60.80;;;;;;4225830;27;20393;-64
2022/06/14 01:32:31;;;;;;;0.00;0.00;;;21.10;60.80;;;;;;4228118;27;20043;-64
2022/06/14 01:34:57;;;;;;;0.00;0.00;;;21.10;60.80;;;;;;4244586;27;20050;-64
2022/06/14 01:37:19;;;;;;;0.00;0.00;;;21.10;60.80;;;;;;4242941;27;20046;-64
2022/06/14 01:39:42;;;;;;;0.00;0.00;;;21.10;60.80;;;;;;4245806;27;20046;-64
2022/06/14 01:42:16;;;;;;;0.00;0.00;;;21.10;60.90;;;;;;4243622;27;20043;-64
2022/06/14 01:44:45;;;;;;;0.00;0.00;;;21.10;60.90;;;;;;4244834;27;20399;-64
2022/06/14 01:47:22;;;;;;;0.00;0.00;;;21.10;61.00;;;;;;4228866;27;20040;-64
2022/06/14 01:52:39;;;;;;;0.00;0.00;;;21.10;61.00;;;;;;4211095;28;20067;-63
2022/06/14 01:55:18;;;;;;;4.50;1.65;;;21.10;62.00;;;;;;4210635;28;20458;-65
2022/06/14 01:57:47;;;;;;;0.00;0.00;;;21.10;61.10;;;;;;4211042;28;20435;-64
2022/06/14 02:00:13;;;;;;;0.00;0.00;;;21.00;61.10;;;;;;4210601;28;20154;-66
2022/06/14 02:02:39;;;;;;;0.00;0.00;;;21.00;61.10;;;;;;4193931;28;20072;-64
2022/06/14 02:05:07;;;;;;;0.00;0.00;;;21.00;61.20;;;;;;4179550;28;20489;-65
2022/06/14 02:07:38;;;;;;;0.00;0.00;;;21.00;61.20;;;;;;4227531;27;20100;-63
2022/06/14 02:10:03;;;;;;;;;;;21.00;61.30;;;;;;4227728;27;20571;-63
2022/06/14 02:12:38;;;;;;;0.00;0.00;;;21.00;61.30;;;;;;4227568;27;19989;-64
2022/06/14 02:15:03;;;;;;;0.00;0.00;;;21.00;61.30;;;;;;4213409;28;20441;-64
2022/06/14 02:17:30;;;;;;;2.13;1.30;;;21.00;61.40;;;;;;4211222;28;20040;-64
2022/06/14 02:19:59;;;;;;;0.00;0.00;;;21.00;61.40;;;;;;4211121;28;20232;-64
2022/06/14 02:22:26;;;;;;;0.00;0.00;;;20.90;61.40;;;;;;4225740;27;20044;-64
2022/06/14 02:24:52;;;;;;;0.00;0.00;;;20.90;61.40;;;;;;4227804;28;20496;-63
2022/06/14 02:27:19;;;;;;;0.00;0.00;;;20.90;61.50;;;;;;4227261;27;20454;-64
2022/06/14 02:29:46;;;;;;;0.00;0.00;;;20.90;62.50;;;;;;4227517;27;20047;-64
2022/06/14 02:32:15;;;;;;;0.00;0.00;;;20.90;61.60;;;;;;4213669;28;20502;-64
2022/06/14 02:34:43;;;;;;;0.00;0.00;;;20.90;61.60;;;;;;4210872;28;20055;-64
2022/06/14 02:37:10;;;;;;;0.98;0.70;;;20.90;62.60;;;;;;4210596;28;20109;-64
2022/06/14 02:39:35;;;;;;;0.00;0.00;;;20.90;61.70;;;;;;4210826;28;20043;-63
2022/06/14 02:42:02;;;;;;;0.05;0.05;;;20.90;61.70;;;;;;4209866;28;20054;-63
2022/06/14 02:44:31;;;;;;;0.00;0.00;;;20.90;62.60;;;;;;4223997;27;20048;-65
2022/06/14 02:46:58;;;;;;;0.00;0.00;;;20.90;61.70;;;;;;4227217;27;20040;-64
2022/06/14 02:49:24;;;;;;;0.00;0.00;;;20.90;61.70;;;;;;4226791;28;20066;-64
2022/06/14 02:51:52;;;;;;;0.00;0.00;;;20.90;61.80;;;;;;4227347;28;20135;-64
2022/06/14 02:54:17;;;;;;;0.00;0.00;;;20.90;61.80;;;;;;4226942;27;20406;-63
2022/06/14 02:56:45;;;;;;;0.00;0.00;;;20.90;61.80;;;;;;4209114;28;20048;-63
2022/06/14 02:59:12;;;;;;;0.47;0.28;;;20.90;61.80;;;;;;4209871;28;20397;-64
2022/06/14 03:01:45;;;;;;;0.00;0.00;;;20.80;61.80;;;;;;4210244;28;20097;-64
2022/06/14 03:04:20;;;;;;;0.00;0.00;;;20.80;61.80;;;;;;4210093;28;20109;-65
2022/06/14 03:06:51;;;;;;;0.00;0.00;;;20.80;62.00;;;;;;4209188;28;20040;-64
2022/06/14 03:09:18;;;;;;;0.00;0.00;;;20.80;62.00;;;;;;4226640;27;20522;-64
2022/06/14 03:11:52;;;;;;;0.00;0.00;;;20.80;62.00;;;;;;4226601;27;20056;-65
2022/06/14 03:14:25;;;;;;;0.00;0.00;;;20.80;62.00;;;;;;4226513;27;20050;-64
2022/06/14 03:16:57;;;;;;;1.95;0.88;;;20.80;62.00;;;;;;4210465;28;20067;-64
2022/06/14 03:19:24;;;;;;;0.00;0.00;;;20.80;62.00;;;;;;4208057;28;20063;-64
2022/06/14 03:21:53;;;;;;;0.22;0.22;;;20.80;62.00;;;;;;4209897;28;20473;-64
2022/06/14 03:24:26;;;;;;;0.00;0.00;;;20.80;62.00;;;;;;4209142;28;20059;-65
2022/06/14 03:27:01;;;;;;;0.00;0.00;;;20.80;62.00;;;;;;4212979;28;20052;-65
2022/06/14 03:29:31;;;;;;;0.03;0.03;;;20.80;62.00;;;;;;4209376;28;20381;-65
2022/06/14 03:31:58;;;;;;;0.00;0.00;;;20.80;62.10;;;;;;4209804;28;20138;-65
2022/06/14 03:34:26;;;;;;;1.45;0.55;;;20.80;62.10;;;;;;4209111;28;20121;-65
2022/06/14 03:36:47;;;;;;;0.00;0.00;;;20.70;62.10;;;;;;4208082;28;20512;-65
2022/06/14 03:39:13;;;;;;;0.32;0.32;;;20.80;62.10;;;;;;4209730;28;20373;-64
2022/06/14 03:41:39;;;;;;;0.00;0.00;;;20.70;62.10;;;;;;4226295;27;20051;-64
2022/06/14 03:44:03;;;;;;;0.00;0.00;;;20.70;62.10;;;;;;4225754;27;20055;-66
2022/06/14 03:46:34;;;;;;;0.00;0.00;;;20.80;62.20;;;;;;4225888;27;20777;-64
2022/06/14 03:48:58;;;;;;;0.00;0.00;;;20.80;62.20;;;;;;4226314;28;20092;-64
2022/06/14 03:51:30;;;;;;;0.55;0.40;;;20.70;62.30;;;;;;4210730;27;20042;-64
2022/06/14 03:53:58;;;;;;;;;;;20.70;62.20;;;;;;4209532;28;20051;-64
2022/06/14 03:56:34;;;;;;;0.00;0.00;;;20.80;62.20;;;;;;4193594;28;19974;-64
2022/06/14 03:59:09;;;;;;;0.00;0.00;;;20.70;62.20;;;;;;4208821;28;20085;-64
2022/06/14 04:01:35;;;;;;;0.47;0.47;;;20.70;62.20;;;;;;4208868;28;20380;-64
2022/06/14 04:04:13;;;;;;;0.00;0.00;;;20.70;62.20;;;;;;4208803;28;20109;-65
2022/06/14 04:06:47;;;;;;;0.00;0.00;;;20.70;62.30;;;;;;4207678;28;20444;-64
2022/06/14 04:09:21;;;;;;;0.00;0.00;;;20.70;63.20;;;;;;4208937;28;20487;-65
2022/06/14 04:11:50;;;;;;;0.13;0.13;;;20.70;62.30;;;;;;4208501;28;20491;-65
2022/06/14 04:14:32;;;;;;;0.00;0.00;;;20.70;62.30;;;;;;4211548;28;20032;-64
2022/06/14 04:17:02;;;;;;;0.00;0.00;;;20.70;62.40;;;;;;4225830;28;20074;-64
2022/06/14 04:19:36;;;;;;;0.00;0.00;;;20.70;62.40;;;;;;4225296;28;20774;-64
2022/06/14 04:22:17;;;;;;;0.00;0.00;;;20.70;62.40;;;;;;4242851;27;20055;-64
2022/06/14 04:24:46;;;;;;;0.00;0.00;;;20.70;62.40;;;;;;4242648;27;20122;-65
2022/06/14 04:27:15;;;;;;;0.00;0.00;;;20.70;62.40;;;;;;4231935;27;20046;-64
2022/06/14 04:29:47;;;;;;;0.00;0.00;;;20.70;62.40;;;;;;4225774;27;20513;-65
2022/06/14 04:32:14;;;;;;;0.00;0.00;;;20.60;62.40;;;;;;4208816;28;20043;-64
2022/06/14 04:34:42;;;;;;;0.10;0.10;;;20.70;62.50;;;;;;4227085;27;20044;-63
2022/06/14 04:37:10;;;;;;;0.00;0.00;;;20.60;62.50;;;;;;4225132;27;20051;-64
2022/06/14 04:39:36;;;;;;;0.00;0.00;;;20.70;62.80;;;;;;4223732;27;20052;-63
2022/06/14 04:42:03;;;;;;;0.00;0.00;;;20.70;62.90;;;;;;4225692;27;20403;-63
2022/06/14 04:44:36;;;;;;;0.88;0.85;;;20.70;62.70;;;;;;4230119;27;20506;-64
2022/06/14 04:46:59;;;;;;;;;;;20.70;62.60;;;;;;4243210;27;20475;-64
2022/06/14 04:49:26;;;;;;;0.20;0.20;;;20.80;62.60;;;;;;4242752;27;19927;-63
2022/06/14 04:51:51;;;;;;;0.00;0.00;;;20.80;63.40;;;;;;4223225;27;20043;-63
2022/06/14 04:54:20;;;;;;;0.00;0.00;;;20.80;62.60;;;;;;4225278;27;20491;-64
2022/06/14 04:56:48;;;;;;;0.00;0.00;;;20.80;62.50;;;;;;4229114;27;20148;-63
2022/06/14 04:59:16;;;;;;;0.00;0.00;;;20.80;62.70;;;;;;4224854;27;20047;-64
2022/06/14 05:01:45;;;;;;;1.02;1.02;;;20.80;62.70;;;;;;4225510;28;20046;-63
2022/06/14 05:04:13;;;;;;;0.00;0.00;;;20.80;62.70;;;;;;4218359;27;20043;-62
2022/06/14 05:06:45;;;;;;;0.00;0.00;;;20.80;62.70;;;;;;4212102;28;20054;-63
2022/06/14 05:09:11;;;;;;;0.98;0.95;;;20.80;62.70;;;;;;4227023;27;20131;-64
2022/06/14 05:11:42;;;;;;;0.00;0.00;;;20.80;62.80;;;;;;4227329;27;20055;-62
2022/06/14 05:14:09;;;;;;;0.00;0.00;;;20.80;62.80;;;;;;4229228;27;20488;-63
2022/06/14 05:16:37;;;;;;;0.00;0.00;;;20.80;62.80;;;;;;4228968;27;20562;-63
2022/06/14 05:19:08;;;;;;;0.10;0.10;;;20.80;63.70;;;;;;4228254;27;20100;-64
2022/06/14 05:21:33;;;;;;;0.00;0.00;;;20.80;62.90;;;;;;4228513;27;20077;-65
2022/06/14 05:23:57;;;;;;;0.00;0.00;;;20.80;62.80;;;;;;4227140;28;20047;-64
2022/06/14 05:26:27;;;;;;;0.00;0.00;;;20.80;62.60;;;;;;4228094;27;20541;-64
2022/06/14 05:29:02;;;;;;;0.10;0.10;;;20.80;62.60;;;;;;4228656;27;20078;-64
2022/06/14 05:31:33;;;;;;;0.00;0.00;;;20.90;62.70;;;;;;4211394;28;20301;-65
2022/06/14 05:33:57;;;;;;;;;;;20.90;62.60;;;;;;4210275;28;20545;-65
2022/06/14 05:36:23;;;;;;;0.00;0.00;;;20.90;62.40;;;;;;4211430;28;19951;-64
2022/06/14 05:38:51;;;;;;;1.15;1.15;;;20.90;62.10;;;;;;4214455;28;20071;-65
2022/06/14 05:41:19;;;;;;;0.30;0.30;;;20.90;61.90;;;;;;4211175;28;20060;-65
2022/06/14 05:43:44;;;;;;;0.13;0.13;;;20.90;61.90;;;;;;4211295;28;20059;-66
2022/06/14 05:46:10;;;;;;;0.10;0.10;;;20.90;61.90;;;;;;4211247;28;20044;-64
2022/06/14 05:48:34;;;;;;;0.00;0.00;;;20.90;61.70;;;;;;4213386;27;20191;-65
2022/06/14 05:50:59;;;;;;;0.10;0.10;;;21.00;61.70;;;;;;4227984;27;20510;-64
2022/06/14 05:53:29;;;;;;;0.20;0.20;;;20.90;61.60;;;;;;4227251;27;20116;-65
2022/06/14 05:55:59;;;;;;;0.28;0.28;;;20.90;61.50;;;;;;4227734;28;20096;-65
2022/06/14 05:58:27;;;;;;;0.00;0.00;;;20.90;61.50;;;;;;4222560;27;20561;-65
2022/06/14 06:00:53;;;;;;;0.00;0.00;;;20.90;61.40;;;;;;4193432;28;20439;-65
2022/06/14 06:03:24;;;;;;;0.00;0.00;;;20.90;61.40;;;;;;4199290;28;20055;-65
2022/06/14 06:05:51;;;;;;;0.00;0.00;;;20.90;61.40;;;;;;4210752;28;20056;-65
2022/06/14 06:08:21;;;;;;;0.57;0.57;;;21.00;61.40;;;;;;4211003;28;20048;-65
2022/06/14 06:10:47;;;;;;;0.00;0.00;;;20.90;61.20;;;;;;4204544;28;20054;-64
2022/06/14 06:13:15;;;;;;;0.00;0.00;;;21.00;61.20;;;;;;4194227;28;20044;-63
2022/06/14 06:15:46;;;;;;;0.00;0.00;;;21.00;61.10;;;;;;4191689;28;20062;-63
2022/06/14 06:18:12;;;;;;;0.70;0.70;;;21.00;61.50;;;;;;4209797;28;20400;-63
2022/06/14 06:20:41;;;;;;;0.40;0.40;;;21.00;60.90;;;;;;4215811;28;20054;-64
2022/06/14 06:23:11;;;;;;;0.00;0.00;;;21.00;60.90;;;;;;4208822;27;20404;-63
2022/06/14 06:25:36;;;;;;;0.10;0.10;;;21.00;60.90;;;;;;4208673;27;20418;-63
2022/06/14 06:28:05;;;;;;;0.00;0.00;;;21.10;61.50;;;;;;4224203;27;20055;-65
2022/06/14 06:30:32;;;;;;;0.00;0.00;;;21.10;60.80;;;;;;4214555;27;20052;-63
2022/06/14 06:32:56;;;;;;;0.00;0.00;;;21.10;60.50;;;;;;4208049;28;20108;-63
2022/06/14 06:35:19;;;;;;;1.40;0.98;;;21.20;60.50;;;;;;4221922;27;20061;-63
2022/06/14 06:37:50;;;;;;;0.98;0.98;;;21.20;60.30;;;;;;4212140;27;20126;-64
2022/06/14 06:40:19;;;;;;;0.00;0.00;;;21.20;60.40;;;;;;4215518;27;20055;-64
2022/06/14 06:42:46;;;;;;;0.00;0.00;;;21.20;60.40;;;;;;4212404;27;20466;-64
2022/06/14 06:45:11;;;;;;;0.00;0.00;;;21.30;60.50;;;;;;4213186;27;20141;-65
2022/06/14 06:47:39;;;;;;;0.00;0.00;;;21.40;60.10;;;;;;4207932;27;20143;-65
2022/06/14 06:50:14;;;;;;;0.00;0.00;;;21.40;59.60;;;;;;4208636;27;20131;-63
2022/06/14 06:52:47;;;;;;;0.10;0.10;;;21.50;59.40;;;;;;4222059;27;20054;-64
2022/06/14 06:55:12;;;;;;;0.00;0.00;;;21.60;60.00;;;;;;4192822;28;20048;-63
2022/06/14 06:57:37;;;;;;;0.00;0.00;;;21.60;59.30;;;;;;4213092;27;20047;-63
2022/06/14 07:00:04;;;;;;;0.22;0.22;;;21.70;59.00;;;;;;4218376;27;20438;-64
2022/06/14 07:02:32;;;;;;;0.10;0.10;;;21.70;58.70;;;;;;4207189;28;20542;-64
2022/06/14 07:05:05;;;;;;;0.00;0.00;;;21.80;58.40;;;;;;4196251;28;20052;-64
2022/06/14 07:07:32;;;;;;;0.95;0.55;;;21.80;58.30;;;;;;4202984;28;20086;-64
2022/06/14 07:10:00;;;;;;;0.00;0.00;;;21.90;58.20;;;;;;4190537;28;20053;-65
2022/06/14 07:12:28;;;;;;;0.00;0.00;;;22.00;58.30;;;;;;4201879;28;20071;-65
2022/06/14 07:14:56;;;;;;;0.38;0.38;;;22.00;58.20;;;;;;4204421;28;20052;-66
2022/06/14 07:17:26;;;;;;;0.00;0.00;;;22.10;58.20;;;;;;4206076;28;20063;-65
2022/06/14 07:19:54;;;;;;;0.00;0.00;;;22.10;57.80;;;;;;4206934;28;20055;-65
2022/06/14 07:22:22;;;;;;;0.00;0.00;;;22.10;57.50;;;;;;4190847;28;20094;-65
2022/06/14 07:24:54;;;;;;;0.00;0.00;;;22.10;57.50;;;;;;4206304;28;20052;-65
2022/06/14 07:27:43;;;;;;;0.00;0.00;;;22.10;57.60;;;;;;4210816;27;20044;-65
2022/06/14 07:30:10;;;;;;;0.00;0.00;;;22.10;57.60;;;;;;4222003;27;20123;-65
2022/06/14 07:32:35;;;;;;;0.00;0.00;;;22.20;57.30;;;;;;4211114;28;20138;-65
2022/06/14 07:35:00;;;;;;;0.00;0.00;;;22.20;57.10;;;;;;4222520;27;20051;-65
2022/06/14 07:37:32;;;;;;;0.00;0.00;;;22.10;57.20;;;;;;4218139;27;20122;-66
2022/06/14 07:39:58;;;;;;;0.00;0.00;;;22.10;57.40;;;;;;4218921;28;20549;-65
2022/06/14 07:42:24;;;;;;;0.30;0.30;;;22.10;56.90;;;;;;4206349;28;20086;-65
2022/06/14 07:44:54;;;;;;;1.02;0.93;;;22.20;57.30;;;;;;4191062;28;20102;-65
2022/06/14 07:47:20;;;;;;;0.00;0.00;;;22.20;57.50;;;;;;4194764;28;20137;-65
2022/06/14 07:49:55;;;;;;;0.85;0.60;;;22.20;57.50;;;;;;4207183;28;20070;-65
2022/06/14 07:52:23;;;;;;;0.00;0.00;;;22.20;57.60;;;;;;4206578;28;20089;-65
2022/06/14 07:54:48;;;;;;;0.00;0.00;;;22.20;57.40;;;;;;4218591;27;20069;-62
2022/06/14 07:57:14;;;;;;;0.00;0.00;;;22.20;57.20;;;;;;4217278;27;20059;-65
2022/06/14 07:59:41;;;;;;;0.00;0.00;;;22.10;57.20;;;;;;4206065;28;20071;-65
2022/06/14 08:02:09;;;;;;;0.00;0.00;;;22.10;57.40;;;;;;4207113;27;20062;-65
2022/06/14 08:04:35;;;;;;;0.00;0.00;;;22.10;57.50;;;;;;4207429;28;20066;-65
2022/06/14 08:07:01;;;;;;;0.00;0.00;;;22.20;57.60;;;;;;4204416;28;20117;-65
2022/06/14 08:09:28;;;;;;;0.00;0.00;;;22.20;57.50;;;;;;4215233;27;20054;-65
2022/06/14 08:11:54;;;;;;;0.65;0.65;;;22.20;57.50;;;;;;4223140;27;20100;-66
2022/06/14 08:14:20;;;;;;;2.30;1.55;;;22.20;57.30;;;;;;4221538;27;20059;-66
2022/06/14 08:16:45;;;;;;;0.00;0.00;;;22.20;57.40;;;;;;4215842;27;20132;-64
2022/06/14 08:19:12;;;;;;;0.00;0.00;;;22.20;57.30;;;;;;4213089;27;20598;-64
2022/06/14 08:21:42;;;;;;;0.00;0.00;;;22.20;57.30;;;;;;4205623;28;20435;-64
2022/06/14 08:24:08;;;;;;;0.00;0.00;;;22.20;57.20;;;;;;4212807;27;20043;-66
2022/06/14 08:26:34;;;;;;;0.00;0.00;;;22.20;56.90;;;;;;4206474;28;20048;-66
2022/06/14 08:29:01;;;;;;;0.28;0.28;;;22.10;56.70;;;;;;4221057;27;20060;-64
2022/06/14 08:31:32;;;;;;;0.00;0.00;;;22.10;56.70;;;;;;4210574;27;20051;-64
2022/06/14 08:33:59;;;;;;;0.00;0.00;;;22.10;56.80;;;;;;4206573;28;21010;-64
2022/06/14 08:36:28;;;;;;;0.00;0.00;;;22.10;57.00;;;;;;4206778;28;20044;-64
2022/06/14 08:38:53;;;;;;;0.55;0.55;;;22.10;56.80;;;;;;4206338;28;20075;-63
2022/06/14 08:41:35;;;;;;;2.22;0.70;;;22.10;56.50;;;;;;4225740;27;20051;-66
2022/06/14 08:44:02;;;;;;;0.25;0.25;;;22.20;56.20;;;;;;4226124;27;20996;-66
2022/06/14 08:46:36;;;;;;;0.00;0.00;;;22.20;56.50;;;;;;4217852;27;20442;-66
2022/06/14 08:49:10;;;;;;;0.30;0.30;;;22.10;56.60;;;;;;4209788;28;20124;-67
2022/06/14 08:51:36;;;;;;;0.00;0.00;;;22.10;56.30;;;;;;4208917;28;20054;-67
2022/06/14 08:54:34;;;;;;;0.00;0.00;;;22.10;56.00;;;;;;4221636;27;20047;-68
2022/06/14 08:57:26;;;;;;;0.00;0.00;;;22.10;55.80;;;;;;4225348;27;20381;-68
2022/06/14 09:00:11;;;;;;;0.00;0.00;;;22.10;56.00;;;;;;4192896;28;20052;-66
2022/06/14 09:03:18;;;;;;;0.00;0.00;;;22.10;56.20;;;;;;4206367;28;20093;-67
2022/06/14 09:06:02;;;;;;;0.00;0.00;;;22.10;56.60;;;;;;4207998;28;20051;-67
2022/06/14 09:08:56;;;;;;;0.00;0.00;;;22.10;56.90;;;;;;4224112;27;20058;-67
2022/06/14 09:11:48;;;;;;;0.00;0.00;;;22.10;57.00;;;;;;4219102;27;20408;-67
2022/06/14 09:14:52;;;;;;;0.10;0.10;;;22.10;56.70;;;;;;4197650;28;20051;-67
2022/06/14 09:17:43;;;;;;;0.00;0.00;;;22.10;56.30;;;;;;4192273;28;20125;-67
2022/06/14 09:20:16;;;;;;;0.03;0.03;;;22.10;56.00;;;;;;4218548;27;20549;-67
2022/06/14 09:22:51;;;;;;;0.00;0.00;;;22.20;56.00;;;;;;4219571;27;20071;-68
2022/06/14 09:25:50;;;;;;;0.47;0.47;;;22.20;56.10;;;;;;4224180;27;20196;-66
2022/06/14 09:28:32;;;;;;;0.00;0.00;;;22.20;55.70;;;;;;4215988;27;20110;-66
2022/06/14 09:31:19;;;;;;;0.00;0.00;;;22.20;55.20;;;;;;4200482;28;20123;-67
2022/06/14 09:34:15;;;;;;;0.13;0.13;;;22.30;54.80;;;;;;4207646;27;20998;-68
2022/06/14 09:37:18;;;;;;;0.00;0.00;;;22.30;54.60;;;;;;4221459;27;20051;-66
2022/06/14 09:40:02;;;;;;;0.00;0.00;;;22.40;54.90;;;;;;4215529;27;20071;-66
2022/06/14 09:42:48;;;;;;;0.00;0.00;;;22.40;55.00;;;;;;4196149;28;20049;-66
2022/06/14 09:45:45;;;;;;;0.00;0.00;;;22.40;54.90;;;;;;4192168;28;20542;-68
2022/06/14 09:48:30;;;;;;;0.10;0.10;;;22.40;55.00;;;;;;4207711;28;20123;-67
2022/06/14 09:51:27;;;;;;;0.00;0.00;;;22.40;55.50;;;;;;4187787;28;20047;-67
2022/06/14 09:54:40;;;;;;;0.08;0.08;;;22.40;54.90;;;;;;4192205;28;20072;-66
2022/06/14 09:57:22;;;;;;;0.00;0.00;;;22.40;54.70;;;;;;4208091;28;20139;-65
2022/06/14 10:00:21;;;;;;;0.00;0.00;;;22.40;54.40;;;;;;4224907;27;20052;-64
2022/06/14 10:03:08;;;;;;;0.00;0.00;;;22.40;54.70;;;;;;4190660;28;20052;-64
2022/06/14 10:05:43;;;;;;;0.00;0.00;;;22.40;54.60;;;;;;4209636;28;20052;-66
2022/06/14 10:08:38;;;;;;;0.08;0.08;;;22.40;54.80;;;;;;4209459;28;20395;-65
2022/06/14 10:11:14;;;;;;;0.00;0.00;;;22.30;54.80;;;;;;4203180;28;20047;-65
2022/06/14 10:14:07;;;;;;;0.20;0.20;;;22.30;55.30;;;;;;4194681;28;20052;-64
2022/06/14 10:16:48;;;;;;;0.00;0.00;;;22.30;55.60;;;;;;4205089;28;20105;-64
2022/06/14 10:19:18;;;;;;;;;;;22.30;55.80;;;;;;4225383;27;20046;-65
2022/06/14 10:21:47;;;;;;;0.00;0.00;;;22.30;55.80;;;;;;4214490;27;19935;-64
2022/06/14 10:24:26;;;;;;;0.00;0.00;;;22.20;55.80;;;;;;4214578;27;20052;-64
2022/06/14 10:29:59;;;;;;;0.00;0.00;;;22.20;55.90;;;;;;4210967;27;20059;-63
2022/06/14 10:32:54;;;;;;;0.00;0.00;;;22.20;55.90;;;;;;4207603;28;20078;-64
2022/06/14 10:35:21;;;;;;;0.10;0.10;;;22.20;56.10;;;;;;4198492;28;20052;-65
2022/06/14 10:38:05;;;;;;;0.35;0.35;;;22.20;56.50;;;;;;4206110;28;20060;-63
2022/06/14 10:40:42;;;;;;;0.00;0.00;;;22.20;56.60;;;;;;4204393;28;20161;-65
2022/06/14 10:43:12;;;;;;;0.00;0.00;;;22.20;56.50;;;;;;4209288;27;20151;-64
2022/06/14 10:45:47;;;;;;;0.00;0.00;;;22.20;56.50;;;;;;4211972;27;20044;-65
2022/06/14 10:48:32;;;;;;;0.00;0.00;;;22.30;56.40;;;;;;4208820;27;20168;-64
2022/06/14 10:51:16;;;;;;;0.10;0.10;;;22.20;56.40;;;;;;4183495;27;20055;-63
2022/06/14 10:53:50;;;;;;;0.00;0.00;;;22.20;56.50;;;;;;4196019;28;20052;-62
2022/06/14 10:56:34;;;;;;;0.00;0.00;;;22.20;56.30;;;;;;4191971;28;20048;-63
2022/06/14 10:59:21;;;;;;;0.00;0.00;;;22.20;56.30;;;;;;4208044;28;20492;-63
2022/06/14 11:01:51;;;;;;;0.00;0.00;;;22.30;56.40;;;;;;4209861;27;20056;-64
2022/06/14 11:04:26;;;;;;;0.00;0.00;;;22.20;55.90;;;;;;4223870;28;20051;-63
2022/06/14 11:07:13;;;;;;;0.00;0.00;;;22.30;56.20;;;;;;4223191;27;20047;-63
2022/06/14 11:09:49;;;;;;;0.00;0.00;;;22.20;55.90;;;;;;4213091;27;20061;-63
2022/06/14 11:12:29;;;;;;;1.05;1.02;;;22.30;56.00;;;;;;4197446;28;20396;-63
2022/06/14 11:15:02;;;;;;;0.20;0.20;;;22.30;56.20;;;;;;4216351;27;20074;-64
2022/06/14 11:17:45;;;;;;;3.08;1.45;;;22.20;56.20;;;;;;4218669;27;20047;-64
2022/06/14 11:20:23;;;;;;;0.00;0.00;;;22.20;56.10;;;;;;4200122;28;20039;-66
2022/06/14 11:22:52;;;;;;;0.38;0.38;;;22.20;56.20;;;;;;4216946;27;20055;-64
2022/06/14 11:25:26;;;;;;;0.00;0.00;;;22.20;57.10;;;;;;4217097;28;20055;-63
2022/06/14 11:27:59;;;;;;;0.35;0.35;;;22.20;56.50;;;;;;4197166;28;20048;-63
2022/06/14 11:30:31;;;;;;;0.00;0.00;;;22.30;56.50;;;;;;4206582;28;20129;-66
2022/06/14 11:33:01;;;;;;;0.00;0.00;;;22.30;56.50;;;;;;4206353;28;20378;-65
2022/06/14 11:35:51;;;;;;;0.00;0.00;;;22.20;56.50;;;;;;4190691;28;20461;-62
2022/06/14 11:38:37;;;;;;;0.65;0.65;;;22.30;56.50;;;;;;4206367;28;20098;-61
2022/06/14 11:41:04;;;;;;;0.00;0.00;;;22.20;56.40;;;;;;4206756;28;20056;-63
2022/06/14 11:43:37;;;;;;;0.00;0.00;;;22.30;56.50;;;;;;4190313;28;20063;-61
2022/06/14 11:46:05;;;;;;;0.00;0.00;;;22.20;56.40;;;;;;4207560;27;20105;-64
2022/06/14 11:48:34;;;;;;;0.00;0.00;;;22.20;56.70;;;;;;4207448;28;20135;-63
2022/06/14 11:51:02;;;;;;;0.00;0.00;;;22.30;57.00;;;;;;4223209;27;20054;-64
2022/06/14 11:53:56;;;;;;;0.00;0.00;;;22.30;56.90;;;;;;4223230;28;20170;-62
2022/06/14 11:56:25;;;;;;;0.00;0.00;;;22.30;56.80;;;;;;4217321;27;20082;-63
2022/06/14 11:59:14;;;;;;;0.00;0.00;;;22.20;56.80;;;;;;4213723;27;20059;-64
2022/06/14 12:01:44;;;;;;;0.00;0.00;;;22.30;56.90;;;;;;4209961;28;20078;-64
2022/06/14 12:04:14;;;;;;;;;;;22.20;56.90;;;;;;4223109;28;20126;-63
2022/06/14 12:06:47;;;;;;;0.00;0.00;;;22.20;56.90;;;;;;4223088;28;19924;-64
2022/06/14 12:09:55;;;;;;;0.00;0.00;;;22.20;57.00;;;;;;4221377;28;20136;-63
2022/06/14 12:12:26;;;;;;;0.00;0.00;;;22.20;57.00;;;;;;4147326;28;20064;-63
2022/06/14 12:14:58;;;;;;;0.00;0.00;;;22.20;57.10;;;;;;4153398;28;20411;-65
2022/06/14 12:17:26;;;;;;;4.38;1.08;;;22.20;57.10;;;;;;4185476;27;20879;-64
2022/06/14 12:19:53;;;;;;;0.00;0.00;;;22.20;57.10;;;;;;4219776;28;21053;-64
2022/06/14 12:22:31;;;;;;;0.03;0.03;;;22.20;57.10;;;;;;4216497;28;20377;-64
2022/06/14 12:27:35;;;;;;;0.00;0.00;;;22.20;57.10;;;;;;4202811;27;20059;-63
2022/06/14 12:29:59;;;;;;;0.00;0.00;;;22.20;57.20;;;;;;4207223;28;20485;-64
2022/06/14 12:32:26;;;;;;;0.00;0.00;;;22.20;57.20;;;;;;4206768;28;20388;-64
2022/06/14 12:34:52;;;;;;;0.00;0.00;;;22.20;57.30;;;;;;4193054;28;20126;-63
2022/06/14 12:37:27;;;;;;;0.10;0.10;;;22.20;57.30;;;;;;4200010;28;20135;-64
2022/06/14 12:39:55;;;;;;;0.00;0.00;;;22.20;57.30;;;;;;4190344;28;20098;-64
2022/06/14 12:42:23;;;;;;;0.00;0.00;;;22.20;57.30;;;;;;4202554;28;20132;-64
2022/06/14 12:44:53;;;;;;;0.00;0.00;;;22.20;57.30;;;;;;4205813;28;20504;-64
2022/06/14 12:47:19;;;;;;;0.00;0.00;;;22.20;57.30;;;;;;4206290;28;20039;-64
2022/06/14 12:49:46;;;;;;;0.57;0.57;;;22.20;57.20;;;;;;4191987;28;20138;-64
2022/06/14 12:52:12;;;;;;;0.00;0.00;;;22.20;57.20;;;;;;4197592;28;20064;-64
2022/06/14 12:54:47;;;;;;;0.00;0.00;;;22.20;57.10;;;;;;4204153;28;20093;-64
2022/06/14 12:57:18;;;;;;;0.00;0.00;;;22.20;57.10;;;;;;4196445;28;20044;-64
2022/06/14 12:59:47;;;;;;;0.28;0.28;;;22.30;57.10;;;;;;4191916;28;20106;-64
2022/06/14 13:02:16;;;;;;;0.03;0.03;;;22.30;57.00;;;;;;4202410;28;20129;-64
2022/06/14 13:04:43;;;;;;;0.63;0.63;;;22.30;56.90;;;;;;4205088;28;20047;-64
2022/06/14 13:07:19;;;;;;;0.20;0.20;;;22.30;56.90;;;;;;4198078;28;20090;-64
2022/06/14 13:09:55;;;;;;;0.00;0.00;;;22.40;56.90;;;;;;4205766;28;20106;-64
2022/06/14 13:12:32;;;;;;;0.00;0.00;;;22.40;56.70;;;;;;4188811;28;20052;-64
2022/06/14 13:15:00;;;;;;;0.00;0.00;;;22.40;56.70;;;;;;4190398;28;20044;-64
2022/06/14 13:17:43;;;;;;;0.00;0.00;;;22.50;56.60;;;;;;4189544;28;20465;-62
2022/06/14 13:20:18;;;;;;;0.20;0.20;;;22.50;56.40;;;;;;4189456;28;20151;-63
2022/06/14 13:22:52;;;;;;;0.00;0.00;;;22.50;56.40;;;;;;4219030;28;20086;-62